Time;durP1;ratioP1;P1;durP2;ratioP2;P2;SDS_P1;SDS_P2;PMS_P1;PMS_P2;Temp;Humidity;BMP_temperature;BMP_pressure;BME280_temperature;BME280_humidity;BME280_pressure;Samples;Min_cycle;Max_cycle;Signal;HPM_P1;HPM_P2
2022/11/11 00:00:50;;;;;;;13.80;4.30;;;;;;;12.61;48.68;96259.91;4959891;28;20510;-70
2022/11/11 00:03:35;;;;;;;2.80;2.53;;;;;;;12.58;49.24;96255.91;4968746;28;20461;-62
2022/11/11 00:06:21;;;;;;;6.10;5.50;;;;;;;12.54;49.09;96253.97;4960063;28;20581;-66
2022/11/11 00:09:09;;;;;;;12.83;5.47;;;;;;;12.35;49.79;96247.31;4959501;28;20459;-68
2022/11/11 00:11:55;;;;;;;4.33;3.93;;;;;;;12.45;49.51;96243.03;4964941;28;20608;-65
2022/11/11 00:14:40;;;;;;;5.47;4.90;;;;;;;12.48;49.34;96245.19;4954124;28;20976;-63
2022/11/11 00:26:39;;;;;;;4.97;4.23;;;;;;;11.52;52.54;96254.66;4973266;28;20433;-68
2022/11/11 00:29:25;;;;;;;3.90;3.53;;;;;;;11.65;52.10;96241.34;4973560;28;20437;-66
2022/11/11 00:32:23;;;;;;;7.67;5.57;;;;;;;12.00;51.85;96248.19;4962454;28;20628;-65
2022/11/11 00:41:20;;;;;;;4.50;3.87;;;;;;;12.90;49.30;96257.03;4959714;28;20573;-67
2022/11/11 00:44:05;;;;;;;8.23;4.17;;;;;;;12.73;49.73;96253.56;4962531;28;20441;-65
2022/11/11 00:52:59;;;;;;;3.70;2.37;;;;;;;12.66;49.30;96247.66;4961377;28;20488;-63
2022/11/11 00:55:44;;;;;;;3.53;3.23;;;;;;;12.64;49.67;96244.47;4969803;28;20446;-68
2022/11/11 00:58:29;;;;;;;19.47;3.77;;;;;;;12.43;50.01;96247.72;4953463;28;20519;-64
2022/11/11 01:01:15;;;;;;;5.20;4.00;;;;;;;12.41;49.75;96244.53;4963170;28;20844;-62
2022/11/11 01:04:02;;;;;;;4.37;3.97;;;;;;;12.48;49.50;96245.19;4973341;28;20533;-66
2022/11/11 01:06:47;;;;;;;5.60;5.13;;;;;;;12.41;49.78;96227.97;4972870;28;20458;-65
2022/11/11 01:09:33;;;;;;;2.97;2.77;;;;;;;12.26;50.46;96241.63;4973566;28;20582;-62
2022/11/11 01:12:18;;;;;;;4.53;4.10;;;;;;;12.51;49.61;96239.47;4969326;28;20862;-64
2022/11/11 01:15:04;;;;;;;9.90;5.93;;;;;;;12.51;49.60;96238.69;4954079;28;20435;-66
2022/11/11 01:17:49;;;;;;;6.07;3.13;;;;;;;12.42;50.19;96234.81;4969066;28;20450;-64
2022/11/11 01:20:36;;;;;;;4.60;3.53;;;;;;;12.38;50.25;96234.50;4961655;28;20598;-62
2022/11/11 01:23:21;;;;;;;9.00;4.27;;;;;;;12.36;49.95;96235.75;4959273;28;20932;-66
2022/11/11 01:26:14;;;;;;;8.77;6.77;;;;;;;12.39;49.61;96241.34;4958068;28;20531;-65
2022/11/11 01:28:59;;;;;;;6.17;4.53;;;;;;;12.08;49.96;96244.38;4962831;28;20549;-65
2022/11/11 01:31:45;;;;;;;6.37;5.80;;;;;;;12.01;49.93;96244.53;4958344;28;20438;-64
2022/11/11 01:34:30;;;;;;;2.40;2.23;;;;;;;12.14;50.11;96243.47;4971812;28;20533;-67
2022/11/11 01:37:16;;;;;;;7.13;6.37;;;;;;;11.86;50.58;96238.16;4971605;28;20441;-64
2022/11/11 01:40:02;;;;;;;4.67;4.10;;;;;;;12.01;49.80;96233.22;4971795;28;20517;-69
2022/11/11 01:42:53;;;;;;;8.63;6.00;;;;;;;11.99;50.34;96235.25;4972117;28;20501;-67
2022/11/11 01:45:47;;;;;;;4.33;3.93;;;;;;;12.07;50.16;96238.34;4971906;28;20473;-69
2022/11/11 01:51:54;;;;;;;5.17;3.97;;;;;;;12.12;49.87;96235.81;4953575;28;20465;-69
2022/11/11 01:54:45;;;;;;;8.83;5.20;;;;;;;11.95;49.42;96244.66;4960296;28;20450;-65
2022/11/11 01:57:37;;;;;;;3.53;3.23;;;;;;;12.01;49.48;96243.72;4957770;28;20613;-67
2022/11/11 02:00:23;;;;;;;3.33;3.03;;;;;;;11.83;49.72;96246.47;4958798;28;20511;-65
2022/11/11 02:03:10;;;;;;;5.10;4.67;;;;;;;11.83;49.71;96241.22;4952203;28;20447;-66
2022/11/11 02:05:56;;;;;;;3.97;3.67;;;;;;;11.72;50.25;96250.72;4954556;28;20446;-64
2022/11/11 02:08:42;;;;;;;4.37;3.83;;;;;;;11.83;49.86;96252.53;4970758;28;20907;-64
2022/11/11 02:14:42;;;;;;;6.20;5.60;;;;;;;11.60;50.43;96256.97;4968010;28;20454;-64
2022/11/11 02:17:30;;;;;;;5.17;2.77;;;;;;;11.69;49.87;96255.63;4965238;28;20465;-71
2022/11/11 02:20:23;;;;;;;4.97;4.57;;;;;;;11.65;50.29;96260.53;4960187;28;20442;-68
2022/11/11 02:23:12;;;;;;;4.50;4.10;;;;;;;11.49;50.69;96255.94;4971639;28;20822;-65
2022/11/11 02:26:00;;;;;;;3.23;2.97;;;;;;;11.47;50.81;96259.81;4971156;28;21080;-66
2022/11/11 02:28:46;;;;;;;9.20;5.47;;;;;;;11.57;50.41;96260.06;4962545;28;20474;-64
2022/11/11 02:31:33;;;;;;;16.77;5.13;;;;;;;11.51;50.00;96253.09;4954156;28;20446;-61
2022/11/11 02:34:19;;;;;;;4.93;4.37;;;;;;;11.37;50.33;96255.13;4970878;28;20473;-66
2022/11/11 02:37:07;;;;;;;5.87;3.93;;;;;;;11.62;50.05;96268.03;4951834;28;20434;-67
2022/11/11 02:39:59;;;;;;;6.37;3.50;;;;;;;11.49;49.88;96260.38;4953825;28;21025;-67
2022/11/11 02:42:49;;;;;;;4.27;3.17;;;;;;;11.57;49.86;96273.19;4959020;28;20594;-65
2022/11/11 02:45:35;;;;;;;3.93;3.63;;;;;;;11.34;49.90;96246.91;4951391;28;20482;-68
2022/11/11 02:48:21;;;;;;;5.27;4.80;;;;;;;11.47;49.88;96265.06;4951220;28;20466;-69
2022/11/11 02:51:07;;;;;;;3.03;2.83;;;;;;;11.41;49.89;96263.34;4952649;28;20463;-66
2022/11/11 02:53:57;;;;;;;2.60;2.27;;;;;;;11.34;50.06;96262.66;4952795;28;20541;-62
2022/11/11 02:59:47;;;;;;;9.63;3.17;;;;;;;11.29;49.86;96259.91;4960331;28;20437;-65
2022/11/11 03:02:32;;;;;;;4.90;4.30;;;;;;;11.16;49.89;96261.72;4970630;28;20465;-64
2022/11/11 03:05:19;;;;;;;1.93;1.67;;;;;;;11.00;50.34;96275.47;4970597;28;20540;-65
2022/11/11 03:08:05;;;;;;;2.77;2.57;;;;;;;11.24;50.18;96264.00;4957365;28;20449;-62
2022/11/11 03:10:51;;;;;;;4.07;3.57;;;;;;;11.35;49.43;96272.13;4957820;28;20897;-65
2022/11/11 03:13:36;;;;;;;1.80;1.70;;;;;;;11.37;49.15;96259.59;4971751;28;21003;-63
2022/11/11 03:19:43;;;;;;;1.57;1.47;;;;;;;11.12;49.76;96271.06;4986056;28;20872;-62
2022/11/11 03:22:28;;;;;;;2.90;2.67;;;;;;;11.12;49.87;96271.06;4964386;28;20992;-61
2022/11/11 03:25:38;;;;;;;2.40;1.90;;;;;;;11.10;50.18;96267.06;4960257;28;20458;-68
2022/11/11 03:28:24;;;;;;;2.27;2.07;;;;;;;11.15;50.05;96269.81;4951183;28;20454;-61
2022/11/11 03:31:10;;;;;;;5.60;5.13;;;;;;;11.17;50.32;96273.00;4949897;28;20482;-62
2022/11/11 03:34:16;;;;;;;7.83;4.80;;;;;;;11.18;50.10;96270.16;4959538;28;20536;-64
2022/11/11 03:40:06;;;;;;;8.77;4.10;;;;;;;11.60;49.71;96262.22;4964384;28;20447;-66
2022/11/11 03:42:52;;;;;;;9.40;5.07;;;;;;;11.61;49.95;96269.06;4964683;28;20446;-66
2022/11/11 03:45:38;;;;;;;2.87;2.63;;;;;;;11.73;49.36;96259.41;4970198;28;20481;-62
2022/11/11 03:48:25;;;;;;;5.30;4.72;;;;;;;11.83;49.68;96263.03;4953974;28;21112;-70
2022/11/11 03:51:10;;;;;;;4.30;3.90;;;;;;;11.76;50.03;96261.56;4952846;28;20584;-69
2022/11/11 03:53:56;;;;;;;30.63;4.90;;;;;;;11.67;50.22;96257.69;4966114;28;20513;-69
2022/11/11 03:56:41;;;;;;;8.07;4.53;;;;;;;11.71;50.45;96264.88;4959341;28;20462;-64
2022/11/11 03:59:27;;;;;;;1.80;1.63;;;;;;;11.61;51.14;96269.06;4955466;28;20618;-63
2022/11/11 04:11:35;;;;;;;6.30;1.90;;;;;;;11.73;52.41;96259.41;4956927;28;21143;-70
2022/11/11 04:17:24;;;;;;;1.90;1.80;;;;;;;12.02;51.34;96255.84;4970830;28;20453;-66
2022/11/11 04:23:14;;;;;;;2.03;1.87;;;;;;;11.95;51.91;96257.78;4973060;28;20480;-61
2022/11/11 04:26:00;;;;;;;4.00;3.60;;;;;;;11.95;51.88;96265.66;4969681;28;20457;-64
2022/11/11 04:34:58;;;;;;;1.90;1.73;;;;;;;11.69;53.06;96271.38;4972760;28;20449;-68
2022/11/11 04:37:48;;;;;;;2.93;2.73;;;;;;;11.58;53.89;96275.59;4973311;28;20505;-70
2022/11/11 04:46:41;;;;;;;6.77;3.60;;;;;;;11.44;56.06;96273.41;4971054;28;20559;-65
2022/11/11 04:49:27;;;;;;;5.27;4.70;;;;;;;11.48;56.15;96258.81;4973973;28;20453;-64
2022/11/11 04:52:30;;;;;;;1.70;1.60;;;;;;;11.87;55.11;96263.38;4955307;28;20509;-66
2022/11/11 04:58:23;;;;;;;3.70;3.33;;;;;;;11.82;59.67;96266.72;4963288;28;20519;-68
2022/11/11 05:01:09;;;;;;;2.73;2.20;;;;;;;12.41;58.67;96265.56;4972335;28;20545;-69
2022/11/11 05:03:54;;;;;;;0.77;0.77;;;;;;;12.65;61.14;96267.09;4969652;28;20443;-72
2022/11/11 05:09:44;;;;;;;2.23;1.10;;;;;;;13.12;61.36;96262.41;4963554;28;20439;-71
2022/11/11 05:12:30;;;;;;;2.33;2.23;;;;;;;13.31;60.91;96255.09;4953489;28;20588;-68
2022/11/11 05:21:29;;;;;;;1.33;1.23;;;;;;;13.72;60.33;96275.78;4960916;28;20564;-61
2022/11/11 05:27:20;;;;;;;4.63;2.37;;;;;;;13.98;59.55;96277.72;4962136;28;20478;-63
2022/11/11 05:30:08;;;;;;;0.57;0.57;;;;;;;14.39;58.30;96285.16;4954002;29;20542;-69
2022/11/11 05:32:54;;;;;;;2.17;2.07;;;;;;;13.95;58.56;96279.03;4966921;28;20538;-64
2022/11/11 05:35:40;;;;;;;1.27;1.17;;;;;;;13.19;56.37;96290.19;4965959;28;20486;-61
2022/11/11 05:38:26;;;;;;;4.50;4.10;;;;;;;13.25;55.56;96298.19;4941102;28;20442;-63
2022/11/11 05:41:11;;;;;;;2.83;2.17;;;;;;;12.68;55.58;96310.53;4926931;28;20438;-61
2022/11/11 05:43:57;;;;;;;14.10;10.13;;;;;;;12.55;56.23;96303.72;4924811;28;20533;-67
2022/11/11 05:46:43;;;;;;;24.07;18.37;;;;;;;12.76;54.64;96310.97;4949280;28;20880;-68
2022/11/11 05:49:28;;;;;;;4.30;3.47;;;;;;;12.75;54.25;96312.00;4952135;28;20451;-66
2022/11/11 05:52:15;;;;;;;4.13;3.73;;;;;;;12.26;54.43;96314.41;4953761;28;20458;-63
2022/11/11 05:55:01;;;;;;;6.93;4.50;;;;;;;12.48;53.93;96324.06;4971533;28;20574;-67
2022/11/11 05:57:46;;;;;;;3.77;2.50;;;;;;;12.54;53.37;96333.66;4957327;28;20446;-67
2022/11/11 06:00:31;;;;;;;1.00;1.00;;;;;;;12.32;54.01;96339.78;4957838;28;20486;-68
2022/11/11 06:03:17;;;;;;;0.50;0.50;;;;;;;11.96;54.03;96335.56;4971895;28;20454;-63
2022/11/11 06:06:02;;;;;;;1.17;0.93;;;;;;;11.96;54.28;96346.88;4954506;28;20455;-65
2022/11/11 06:08:48;;;;;;;1.53;1.47;;;;;;;12.29;53.82;96351.53;4951264;28;20462;-63
2022/11/11 06:11:33;;;;;;;2.83;2.63;;;;;;;12.33;53.18;96347.44;4958831;28;20529;-63
2022/11/11 06:14:19;;;;;;;11.90;10.67;;;;;;;12.49;53.56;96351.97;4957444;28;20573;-64
2022/11/11 06:17:05;;;;;;;4.50;3.70;;;;;;;11.98;58.73;96359.78;4961784;28;20450;-60
2022/11/11 06:19:50;;;;;;;4.93;4.43;;;;;;;12.48;55.69;96354.84;4956640;28;20449;-66
2022/11/11 06:23:18;;;;;;;27.07;4.47;;;;;;;12.61;54.81;96359.84;4958043;28;20605;-64
2022/11/11 06:28:50;;;;;;;3.70;3.10;;;;;;;13.27;54.15;96356.66;4960216;28;20505;-69
2022/11/11 06:31:36;;;;;;;2.03;1.33;;;;;;;13.33;54.33;96359.16;4957483;28;20493;-64
2022/11/11 06:34:21;;;;;;;4.27;2.90;;;;;;;13.43;54.78;96363.81;4969149;28;20496;-64
2022/11/11 06:37:07;;;;;;;1.97;1.87;;;;;;;13.20;54.92;96352.34;4956467;28;20984;-60
2022/11/11 06:39:52;;;;;;;2.17;1.77;;;;;;;13.17;56.13;96370.44;4954790;28;20965;-62
2022/11/11 06:42:38;;;;;;;1.00;0.93;;;;;;;13.11;58.15;96372.19;4969205;28;20461;-61
2022/11/11 06:45:26;;;;;;;1.20;1.17;;;;;;;13.12;59.75;96379.03;4969180;28;20497;-66
2022/11/11 06:48:11;;;;;;;4.37;1.37;;;;;;;13.39;60.20;96378.47;4970610;28;20453;-67
2022/11/11 06:51:05;;;;;;;1.10;1.10;;;;;;;13.42;59.56;96356.91;4952287;28;20466;-63
2022/11/11 06:53:51;;;;;;;0.40;0.40;;;;;;;13.35;59.97;96377.34;4964265;28;20540;-65
2022/11/11 06:56:36;;;;;;;1.03;0.93;;;;;;;13.57;59.96;96375.63;4960797;28;20481;-61
2022/11/11 06:59:22;;;;;;;2.87;1.33;;;;;;;13.67;59.72;96370.50;4965972;28;20475;-62
2022/11/11 07:02:13;;;;;;;0.43;0.43;;;;;;;13.64;59.47;96371.81;4964118;28;20477;-62
2022/11/11 07:04:59;;;;;;;0.87;0.87;;;;;;;13.87;59.78;96371.66;4959676;28;20582;-63
2022/11/11 07:07:45;;;;;;;3.77;2.07;;;;;;;14.01;59.12;96377.41;4956998;28;20441;-63
2022/11/11 07:10:32;;;;;;;0.90;0.90;;;;;;;13.83;59.46;96375.00;4958676;28;20462;-65
2022/11/11 07:13:18;;;;;;;0.60;0.60;;;;;;;14.01;58.54;96364.22;4958400;28;20804;-61
2022/11/11 07:16:04;;;;;;;0.30;0.30;;;;;;;13.83;59.58;96375.78;4970438;28;20920;-63
2022/11/11 07:18:50;;;;;;;0.57;0.57;;;;;;;13.79;59.55;96381.78;4970317;28;20505;-65
2022/11/11 07:21:35;;;;;;;0.40;0.40;;;;;;;13.81;60.27;96374.44;4964603;28;20518;-65
2022/11/11 07:24:21;;;;;;;7.40;1.40;;;;;;;13.91;60.01;96391.22;4964141;28;20445;-65
2022/11/11 07:27:06;;;;;;;2.63;1.67;;;;;;;14.14;58.92;96392.91;4951201;28;20503;-66
2022/11/11 07:29:51;;;;;;;0.33;0.33;;;;;;;14.24;58.70;96390.41;4965384;28;20527;-65
2022/11/11 07:32:44;;;;;;;1.43;1.33;;;;;;;14.16;59.26;96390.78;4963061;28;20459;-62
2022/11/11 07:35:30;;;;;;;3.20;2.00;;;;;;;14.29;58.55;96401.03;4950768;28;20544;-64
2022/11/11 07:38:15;;;;;;;2.83;2.43;;;;;;;13.97;59.45;96397.38;4953638;28;20454;-66
2022/11/11 07:41:01;;;;;;;0.30;0.30;;;;;;;13.94;59.80;96403.13;4959396;28;20809;-63
2022/11/11 07:43:46;;;;;;;1.83;1.50;;;;;;;14.17;58.53;96402.94;4950222;28;20462;-64
2022/11/11 07:46:32;;;;;;;0.57;0.57;;;;;;;14.28;58.40;96409.19;4962351;28;20593;-61
2022/11/11 07:49:17;;;;;;;0.80;0.57;;;;;;;14.06;58.71;96409.09;4968440;28;20517;-67
2022/11/11 07:52:03;;;;;;;0.50;0.50;;;;;;;14.06;58.93;96419.66;4950223;28;20447;-66
2022/11/11 07:54:49;;;;;;;1.13;1.03;;;;;;;13.93;59.23;96414.69;4968362;28;20517;-63
2022/11/11 07:57:35;;;;;;;1.50;1.23;;;;;;;14.24;57.76;96416.75;4968405;28;20833;-62
2022/11/11 08:00:21;;;;;;;3.27;2.97;;;;;;;14.09;58.32;96396.25;4970010;28;20577;-65
2022/11/11 08:03:07;;;;;;;1.37;1.37;;;;;;;14.18;58.13;96420.34;4970705;28;20457;-65
2022/11/11 08:05:55;;;;;;;1.23;1.13;;;;;;;14.35;57.19;96425.66;4957362;28;20461;-65
2022/11/11 08:08:41;;;;;;;0.67;0.67;;;;;;;14.09;58.21;96429.69;4973764;28;20458;-63
2022/11/11 08:14:30;;;;;;;1.17;1.13;;;;;;;13.67;58.96;96425.84;4973376;28;20500;-61
2022/11/11 08:17:15;;;;;;;2.27;2.17;;;;;;;13.80;59.36;96425.53;4972765;28;20540;-64
2022/11/11 08:20:00;;;;;;;1.70;0.67;;;;;;;13.76;58.82;96419.94;4960390;28;20445;-64
2022/11/11 08:22:46;;;;;;;2.57;1.07;;;;;;;14.07;58.08;96437.03;4971048;28;20505;-62
2022/11/11 08:25:52;;;;;;;0.37;0.37;;;;;;;14.11;57.36;96430.25;4965771;28;20825;-62
2022/11/11 08:28:37;;;;;;;0.27;0.27;;;;;;;14.35;57.27;96430.91;4960632;28;20429;-62
2022/11/11 08:31:22;;;;;;;0.70;0.70;;;;;;;14.43;57.34;96431.34;4970839;28;20517;-62
2022/11/11 08:34:08;;;;;;;6.80;3.60;;;;;;;14.39;56.69;96427.56;4953185;28;21157;-63
2022/11/11 08:36:53;;;;;;;0.77;0.77;;;;;;;14.07;58.21;96434.41;4972314;28;20505;-64
2022/11/11 08:39:38;;;;;;;0.40;0.40;;;;;;;14.23;57.01;96433.63;4959033;28;20836;-65
2022/11/11 08:42:24;;;;;;;0.43;0.43;;;;;;;14.64;56.20;96433.19;4953781;28;20461;-62
2022/11/11 08:45:09;;;;;;;2.47;1.60;;;;;;;14.11;56.98;96436.34;4956659;28;20545;-61
2022/11/11 08:47:55;;;;;;;0.20;0.20;;;;;;;14.33;57.00;96433.81;4961033;28;20534;-63
2022/11/11 08:50:40;;;;;;;0.63;0.63;;;;;;;14.53;55.82;96439.38;4954406;28;20867;-62
2022/11/11 08:53:26;;;;;;;0.53;0.53;;;;;;;14.71;55.00;96428.53;4964499;28;20442;-64
2022/11/11 08:56:12;;;;;;;0.27;0.27;;;;;;;14.86;55.40;96427.94;4953218;28;21243;-62
2022/11/11 08:58:58;;;;;;;0.83;0.83;;;;;;;14.95;54.76;96432.56;4968073;28;20476;-60
2022/11/11 09:01:43;;;;;;;3.07;2.10;;;;;;;14.85;54.83;96427.13;4962977;28;20974;-64
2022/11/11 09:04:28;;;;;;;0.57;0.57;;;;;;;15.12;54.24;96424.59;4966629;28;20447;-65
2022/11/11 09:07:33;;;;;;;0.67;0.67;;;;;;;15.08;54.18;96426.91;4966403;28;20453;-64
2022/11/11 09:10:18;;;;;;;0.33;0.33;;;;;;;15.01;54.11;96418.41;4963314;28;20577;-63
2022/11/11 09:13:04;;;;;;;1.30;1.27;;;;;;;15.50;53.54;96421.06;4958723;28;20820;-63
2022/11/11 09:15:53;;;;;;;1.33;0.70;;;;;;;15.54;52.96;96419.53;4972156;28;20449;-65
2022/11/11 09:18:38;;;;;;;0.93;0.73;;;;;;;15.74;52.47;96425.00;4963169;28;20450;-64
2022/11/11 09:21:24;;;;;;;0.70;0.70;;;;;;;15.05;53.21;96426.63;4970125;28;20968;-63
2022/11/11 09:24:10;;;;;;;2.77;1.57;;;;;;;15.48;52.28;96423.97;4959674;28;20446;-63
2022/11/11 09:26:55;;;;;;;2.87;0.87;;;;;;;15.47;52.44;96424.22;4959785;28;20505;-65
2022/11/11 09:29:41;;;;;;;0.40;0.40;;;;;;;15.62;51.80;96424.38;4967691;28;20437;-67
2022/11/11 09:32:26;;;;;;;0.40;0.40;;;;;;;16.07;50.78;96424.78;4961942;28;20450;-65
2022/11/11 09:35:12;;;;;;;3.13;2.20;;;;;;;15.70;51.02;96426.56;4971881;28;20488;-64
2022/11/11 09:38:01;;;;;;;3.33;1.77;;;;;;;15.74;51.12;96414.44;4972251;28;20473;-66
2022/11/11 09:41:13;;;;;;;0.37;0.37;;;;;;;15.83;49.99;96405.00;4962585;28;20530;-66
2022/11/11 09:44:00;;;;;;;0.20;0.20;;;;;;;15.85;50.69;96416.13;4959912;28;20829;-66
2022/11/11 09:46:55;;;;;;;0.50;0.50;;;;;;;15.97;50.00;96419.41;4971141;28;20875;-68
2022/11/11 09:49:51;;;;;;;0.00;0.00;;;;;;;15.47;50.73;96411.00;4972020;28;20457;-67
2022/11/11 09:52:42;;;;;;;0.00;0.00;;;;;;;16.03;49.81;96399.88;4952701;28;20817;-64
2022/11/11 09:55:51;;;;;;;0.63;0.63;;;;;;;16.08;49.49;96394.63;4966167;28;20485;-66
2022/11/11 09:58:40;;;;;;;0.37;0.37;;;;;;;15.70;49.59;96389.56;4972017;28;20505;-66
2022/11/11 10:01:31;;;;;;;0.30;0.30;;;;;;;15.59;50.01;96396.59;4971295;28;20445;-64
2022/11/11 10:04:41;;;;;;;0.90;0.90;;;;;;;15.35;50.87;96386.53;4971538;28;20457;-65
2022/11/11 10:07:35;;;;;;;2.33;0.67;;;;;;;15.42;50.33;96389.81;4970758;28;20602;-64
2022/11/11 10:10:33;;;;;;;0.77;0.67;;;;;;;15.79;49.57;96396.78;4962941;28;20582;-67
2022/11/11 10:13:25;;;;;;;1.53;1.43;;;;;;;15.79;49.04;96390.69;4959419;28;20434;-64
2022/11/11 10:16:35;;;;;;;1.90;1.33;;;;;;;16.29;48.22;96393.75;4958091;28;20451;-63
2022/11/11 10:19:31;;;;;;;1.67;0.60;;;;;;;16.27;48.35;96403.78;4957864;28;20518;-65
2022/11/11 10:22:33;;;;;;;0.20;0.20;;;;;;;15.81;48.62;96393.88;4960845;28;20542;-64
2022/11/11 10:25:24;;;;;;;0.07;0.07;;;;;;;15.87;48.91;96398.97;4952317;28;20454;-63
2022/11/11 10:28:16;;;;;;;0.40;0.40;;;;;;;16.27;47.31;96387.91;4969084;28;21013;-63
2022/11/11 10:31:09;;;;;;;0.20;0.20;;;;;;;15.86;48.79;96375.41;4971369;28;20590;-62
2022/11/11 10:34:00;;;;;;;0.33;0.33;;;;;;;16.31;48.01;96391.66;4960718;28;20446;-62
2022/11/11 10:36:53;;;;;;;0.87;0.50;;;;;;;15.84;48.25;96388.88;4967308;28;20786;-62
2022/11/11 10:39:51;;;;;;;0.33;0.33;;;;;;;15.99;48.68;96381.09;4965180;28;20454;-66
2022/11/11 10:42:37;;;;;;;0.60;0.60;;;;;;;15.88;49.15;96389.19;4951648;28;20467;-66
2022/11/11 10:45:38;;;;;;;3.27;1.00;;;;;;;16.02;49.05;96385.88;4950599;28;20637;-65
2022/11/11 10:48:37;;;;;;;0.33;0.33;;;;;;;16.33;47.75;96386.88;4967869;28;20470;-67
2022/11/11 10:51:33;;;;;;;0.20;0.20;;;;;;;16.47;47.58;96376.66;4958105;28;20454;-65
2022/11/11 10:54:44;;;;;;;0.10;0.10;;;;;;;16.69;47.12;96372.84;4956134;28;20580;-64
2022/11/11 10:57:43;;;;;;;0.27;0.27;;;;;;;15.89;47.42;96381.00;4967705;28;20515;-64
2022/11/11 11:00:33;;;;;;;2.43;0.77;;;;;;;16.14;46.78;96367.97;4951420;28;20522;-65
2022/11/11 11:03:31;;;;;;;0.17;0.17;;;;;;;15.98;46.75;96370.78;4961131;28;20654;-65
2022/11/11 11:06:24;;;;;;;0.20;0.20;;;;;;;16.39;46.11;96369.97;4952352;28;20669;-63
2022/11/11 11:09:25;;;;;;;0.10;0.10;;;;;;;16.74;45.06;96356.97;4966879;28;20450;-63
2022/11/11 11:12:37;;;;;;;0.40;0.40;;;;;;;16.19;45.75;96353.97;4970777;28;21036;-63
2022/11/11 11:15:26;;;;;;;0.57;0.57;;;;;;;16.08;46.27;96357.59;4961597;28;21020;-61
2022/11/11 11:18:13;;;;;;;1.17;1.07;;;;;;;16.57;45.16;96363.53;4965272;28;20442;-63
2022/11/11 11:21:04;;;;;;;1.03;1.00;;;;;;;16.51;45.42;96361.88;4951793;28;20466;-63
2022/11/11 11:23:50;;;;;;;1.33;1.23;;;;;;;16.53;45.66;96344.69;4960783;28;20446;-64
2022/11/11 11:26:48;;;;;;;1.60;1.50;;;;;;;16.69;44.01;96338.44;4964575;28;20526;-62
2022/11/11 11:29:38;;;;;;;0.87;0.70;;;;;;;16.91;44.61;96335.59;4964194;28;20491;-64
2022/11/11 11:32:28;;;;;;;0.63;0.63;;;;;;;16.56;44.15;96335.44;4961479;28;20538;-64
2022/11/11 11:35:37;;;;;;;1.40;0.63;;;;;;;16.54;43.58;96335.69;4970906;28;20484;-63
2022/11/11 11:38:40;;;;;;;0.10;0.10;;;;;;;16.48;43.97;96336.72;4966620;28;20443;-64
2022/11/11 11:41:50;;;;;;;0.30;0.30;;;;;;;16.72;43.42;96332.59;4966015;28;20514;-63
2022/11/11 11:44:39;;;;;;;6.73;1.77;;;;;;;16.85;42.60;96326.84;4967978;28;20446;-65
2022/11/11 11:47:43;;;;;;;0.10;0.10;;;;;;;16.90;42.67;96337.44;4963090;28;20993;-63
2022/11/11 11:50:51;;;;;;;0.47;0.30;;;;;;;17.10;42.15;96326.09;4970510;28;20582;-65
2022/11/11 11:54:01;;;;;;;1.07;0.97;;;;;;;17.20;42.34;96329.59;4967608;28;20453;-64
2022/11/11 11:56:51;;;;;;;0.93;0.70;;;;;;;16.83;42.56;96334.25;4963388;28;20455;-63
2022/11/11 11:59:36;;;;;;;0.40;0.40;;;;;;;17.00;41.75;96329.53;4961070;28;20429;-63
2022/11/11 12:02:30;;;;;;;0.33;0.33;;;;;;;16.71;42.52;96331.03;4959863;28;20868;-62
2022/11/11 12:05:22;;;;;;;5.83;2.10;;;;;;;16.85;41.98;96323.38;4965690;28;20456;-65
2022/11/11 12:08:23;;;;;;;1.50;0.90;;;;;;;16.53;43.00;96323.50;4961258;28;20437;-65
2022/11/11 12:11:27;;;;;;;0.33;0.33;;;;;;;16.62;42.08;96326.47;4959673;28;20444;-61
2022/11/11 12:14:44;;;;;;;0.70;0.70;;;;;;;16.74;42.10;96327.84;4959874;28;20562;-64
2022/11/11 12:17:33;;;;;;;0.27;0.27;;;;;;;16.87;41.69;96323.94;4967689;28;20438;-64
2022/11/11 12:20:40;;;;;;;0.30;0.30;;;;;;;16.64;41.93;96309.28;4954637;28;20445;-63
2022/11/11 12:23:38;;;;;;;0.30;0.30;;;;;;;17.07;41.31;96314.19;4961249;28;21000;-66
2022/11/11 12:26:44;;;;;;;0.20;0.20;;;;;;;17.36;40.83;96305.75;4971035;28;20451;-61
2022/11/11 12:29:53;;;;;;;0.00;0.00;;;;;;;17.30;41.40;96312.13;4953923;28;20434;-65
2022/11/11 12:32:56;;;;;;;1.53;0.80;;;;;;;17.20;41.82;96307.59;4966231;28;20586;-65
2022/11/11 12:35:42;;;;;;;0.30;0.30;;;;;;;16.54;42.14;96306.59;4973685;28;20516;-62
2022/11/11 12:38:37;;;;;;;0.90;0.87;;;;;;;16.95;41.68;96310.97;4960356;28;20505;-65
2022/11/11 12:41:44;;;;;;;0.53;0.53;;;;;;;16.92;41.36;96300.09;4973304;28;20448;-65
2022/11/11 12:45:24;;;;;;;0.20;0.20;;;;;;;16.99;41.10;96301.47;4954881;28;20502;-65
2022/11/11 12:48:37;;;;;;;1.40;0.93;;;;;;;17.15;40.65;96305.72;4965584;28;21020;-62
2022/11/11 12:51:31;;;;;;;0.20;0.20;;;;;;;16.86;41.69;96307.25;4954038;28;20498;-63
2022/11/11 12:54:36;;;;;;;0.30;0.30;;;;;;;17.10;41.27;96297.78;4958839;28;20452;-63
2022/11/11 12:57:58;;;;;;;0.37;0.33;;;;;;;17.49;41.00;96292.03;4971329;28;20449;-63
2022/11/11 13:01:17;;;;;;;0.77;0.77;;;;;;;17.57;41.19;96299.47;4968897;28;20860;-65
2022/11/11 13:04:49;;;;;;;0.30;0.30;;;;;;;17.24;41.75;96309.44;4971728;28;20972;-65
2022/11/11 13:08:01;;;;;;;0.60;0.60;;;;;;;16.80;42.53;96307.50;4966940;28;20449;-66
2022/11/11 13:10:47;;;;;;;0.50;0.50;;;;;;;16.27;43.45;96307.75;4953205;28;20461;-64
2022/11/11 13:13:41;;;;;;;0.10;0.10;;;;;;;17.27;41.49;96315.28;4964078;28;20446;-63
2022/11/11 13:16:27;;;;;;;0.33;0.33;;;;;;;17.09;41.82;96314.72;4967168;28;21001;-64
2022/11/11 13:19:23;;;;;;;1.80;0.77;;;;;;;17.22;41.75;96311.56;4953593;28;20458;-63
2022/11/11 13:22:28;;;;;;;1.10;0.60;;;;;;;17.22;41.69;96310.78;4963515;28;20574;-65
2022/11/11 13:25:19;;;;;;;0.20;0.20;;;;;;;17.32;41.45;96307.38;4972621;28;20965;-66
2022/11/11 13:28:16;;;;;;;1.70;0.90;;;;;;;17.19;41.70;96306.78;4972475;28;20458;-63
2022/11/11 13:31:29;;;;;;;0.50;0.50;;;;;;;17.28;41.50;96308.94;4959596;28;20451;-66
2022/11/11 13:34:15;;;;;;;0.23;0.23;;;;;;;17.23;41.83;96307.06;4964563;28;20449;-63
2022/11/11 13:37:03;;;;;;;0.93;0.70;;;;;;;17.09;41.88;96312.09;4966750;28;20434;-66
2022/11/11 13:39:51;;;;;;;0.50;0.50;;;;;;;16.85;42.38;96321.53;4966066;28;20465;-65
2022/11/11 13:42:49;;;;;;;0.13;0.13;;;;;;;16.60;42.65;96323.28;4964143;28;20960;-66
2022/11/11 13:45:39;;;;;;;0.30;0.30;;;;;;;16.54;42.93;96319.81;4954026;28;20474;-66
2022/11/11 13:48:45;;;;;;;0.67;0.67;;;;;;;16.86;42.36;96317.81;4953515;28;20538;-65
2022/11/11 13:51:42;;;;;;;0.77;0.77;;;;;;;17.27;41.31;96323.22;4953960;28;20459;-68
2022/11/11 13:54:47;;;;;;;0.27;0.27;;;;;;;17.10;41.36;96313.66;4952737;28;20481;-62
2022/11/11 13:57:34;;;;;;;8.23;1.03;;;;;;;17.11;41.43;96320.56;4966179;28;20495;-67
2022/11/11 14:00:20;;;;;;;1.43;0.93;;;;;;;17.32;41.44;96320.63;4964978;28;20478;-62
2022/11/11 14:03:26;;;;;;;1.83;0.93;;;;;;;17.03;41.93;96329.00;4952032;28;20539;-65
2022/11/11 14:06:15;;;;;;;0.13;0.13;;;;;;;17.27;41.25;96329.34;4966649;28;20450;-64
2022/11/11 14:09:01;;;;;;;1.93;0.43;;;;;;;17.10;41.74;96318.97;4965615;28;20449;-63
2022/11/11 14:11:47;;;;;;;0.70;0.70;;;;;;;16.94;42.42;96327.13;4952777;28;20447;-63
2022/11/11 14:14:35;;;;;;;0.50;0.50;;;;;;;17.05;42.32;96321.59;4965854;28;20447;-65
2022/11/11 14:17:21;;;;;;;0.30;0.30;;;;;;;17.23;42.43;96328.25;4964785;28;20531;-62
2022/11/11 14:20:29;;;;;;;0.30;0.30;;;;;;;17.31;42.13;96334.91;4952575;28;20543;-64
2022/11/11 14:23:39;;;;;;;0.47;0.47;;;;;;;17.32;42.41;96332.00;4957036;28;20428;-63
2022/11/11 14:26:26;;;;;;;5.23;1.13;;;;;;;17.30;42.61;96338.63;4954671;28;20449;-63
2022/11/11 14:29:18;;;;;;;0.47;0.40;;;;;;;17.35;42.68;96335.97;4963843;28;20524;-65
2022/11/11 14:32:41;;;;;;;0.67;0.67;;;;;;;17.23;42.98;96338.84;4952025;28;20591;-65
2022/11/11 14:35:43;;;;;;;0.87;0.80;;;;;;;16.99;43.34;96333.22;4951828;28;20618;-62
2022/11/11 14:38:50;;;;;;;0.37;0.37;;;;;;;17.08;43.76;96336.97;4966044;28;20671;-64
2022/11/11 14:41:53;;;;;;;0.27;0.27;;;;;;;17.12;43.11;96343.34;4965662;28;20442;-63
2022/11/11 14:44:40;;;;;;;2.23;0.93;;;;;;;17.09;43.44;96338.56;4964354;28;20800;-63
2022/11/11 14:47:41;;;;;;;4.03;1.77;;;;;;;17.09;44.11;96346.53;4959935;28;20832;-65
2022/11/11 14:50:47;;;;;;;0.10;0.10;;;;;;;17.00;43.44;96345.44;4965982;28;20442;-64
2022/11/11 14:53:37;;;;;;;0.50;0.50;;;;;;;17.03;44.46;96342.25;4964606;28;20458;-70